sensor_id;sensor_type;location;lat;lon;timestamp;P1;durP1;ratioP1;P2;durP2;ratioP2
22129;SDS011;11231;50.746;4.272;2024-01-07T00:00:25;18.03;;;11.07;;
22129;SDS011;11231;50.746;4.272;2024-01-07T00:02:51;21.70;;;11.60;;
22129;SDS011;11231;50.746;4.272;2024-01-07T00:05:18;18.03;;;11.27;;
22129;SDS011;11231;50.746;4.272;2024-01-07T00:07:43;21.23;;;12.00;;
22129;SDS011;11231;50.746;4.272;2024-01-07T00:10:09;18.20;;;11.43;;
22129;SDS011;11231;50.746;4.272;2024-01-07T00:12:37;18.83;;;11.40;;
22129;SDS011;11231;50.746;4.272;2024-01-07T00:15:06;20.40;;;11.70;;
22129;SDS011;11231;50.746;4.272;2024-01-07T00:17:32;20.27;;;11.90;;
22129;SDS011;11231;50.746;4.272;2024-01-07T00:19:58;19.40;;;11.03;;
22129;SDS011;11231;50.746;4.272;2024-01-07T00:22:24;21.33;;;11.67;;
22129;SDS011;11231;50.746;4.272;2024-01-07T00:24:50;20.73;;;12.07;;
22129;SDS011;11231;50.746;4.272;2024-01-07T00:27:16;18.70;;;11.60;;
22129;SDS011;11231;50.746;4.272;2024-01-07T00:29:42;19.90;;;12.20;;
22129;SDS011;11231;50.746;4.272;2024-01-07T00:32:10;19.90;;;12.30;;
22129;SDS011;11231;50.746;4.272;2024-01-07T00:34:41;21.97;;;12.63;;
22129;SDS011;11231;50.746;4.272;2024-01-07T00:37:10;21.17;;;12.67;;
22129;SDS011;11231;50.746;4.272;2024-01-07T00:39:41;21.63;;;11.97;;
22129;SDS011;11231;50.746;4.272;2024-01-07T00:42:10;19.43;;;11.57;;
22129;SDS011;11231;50.746;4.272;2024-01-07T00:44:37;20.57;;;12.70;;
22129;SDS011;11231;50.746;4.272;2024-01-07T00:47:03;19.87;;;12.03;;
22129;SDS011;11231;50.746;4.272;2024-01-07T00:49:30;22.20;;;12.80;;
22129;SDS011;11231;50.746;4.272;2024-01-07T00:51:56;24.03;;;13.30;;
22129;SDS011;11231;50.746;4.272;2024-01-07T00:54:22;24.07;;;13.23;;
22129;SDS011;11231;50.746;4.272;2024-01-07T00:56:48;20.07;;;12.10;;
22129;SDS011;11231;50.746;4.272;2024-01-07T00:59:15;23.30;;;12.23;;
22129;SDS011;11231;50.746;4.272;2024-01-07T01:01:42;20.13;;;12.10;;
22129;SDS011;11231;50.746;4.272;2024-01-07T01:04:08;20.60;;;12.33;;
22129;SDS011;11231;50.746;4.272;2024-01-07T01:06:34;21.00;;;12.43;;
22129;SDS011;11231;50.746;4.272;2024-01-07T01:09:01;21.47;;;12.67;;
22129;SDS011;11231;50.746;4.272;2024-01-07T01:11:27;21.03;;;12.97;;
22129;SDS011;11231;50.746;4.272;2024-01-07T01:13:55;20.13;;;12.40;;
22129;SDS011;11231;50.746;4.272;2024-01-07T01:16:22;20.73;;;12.80;;
22129;SDS011;11231;50.746;4.272;2024-01-07T01:18:49;20.40;;;12.13;;
22129;SDS011;11231;50.746;4.272;2024-01-07T01:21:16;23.83;;;12.70;;
22129;SDS011;11231;50.746;4.272;2024-01-07T01:23:41;21.07;;;12.70;;
22129;SDS011;11231;50.746;4.272;2024-01-07T01:26:07;21.27;;;12.80;;
22129;SDS011;11231;50.746;4.272;2024-01-07T01:28:34;25.73;;;12.67;;
22129;SDS011;11231;50.746;4.272;2024-01-07T01:31:01;23.63;;;13.40;;
22129;SDS011;11231;50.746;4.272;2024-01-07T01:33:30;23.23;;;12.93;;
22129;SDS011;11231;50.746;4.272;2024-01-07T01:35:58;23.37;;;13.37;;
22129;SDS011;11231;50.746;4.272;2024-01-07T01:38:32;22.47;;;13.13;;
22129;SDS011;11231;50.746;4.272;2024-01-07T01:40:58;21.93;;;12.80;;
22129;SDS011;11231;50.746;4.272;2024-01-07T01:43:25;21.93;;;12.73;;
22129;SDS011;11231;50.746;4.272;2024-01-07T01:45:54;22.60;;;12.80;;
22129;SDS011;11231;50.746;4.272;2024-01-07T01:48:22;21.20;;;12.73;;
22129;SDS011;11231;50.746;4.272;2024-01-07T01:50:50;22.63;;;13.00;;
22129;SDS011;11231;50.746;4.272;2024-01-07T01:53:19;19.90;;;11.90;;
22129;SDS011;11231;50.746;4.272;2024-01-07T01:55:46;22.30;;;12.90;;
22129;SDS011;11231;50.746;4.272;2024-01-07T01:58:12;22.93;;;12.63;;
22129;SDS011;11231;50.746;4.272;2024-01-07T02:00:39;20.47;;;12.83;;
22129;SDS011;11231;50.746;4.272;2024-01-07T02:03:06;23.17;;;13.17;;
22129;SDS011;11231;50.746;4.272;2024-01-07T02:05:34;24.13;;;14.13;;
22129;SDS011;11231;50.746;4.272;2024-01-07T02:08:01;21.43;;;12.50;;
22129;SDS011;11231;50.746;4.272;2024-01-07T02:10:28;23.60;;;14.20;;
22129;SDS011;11231;50.746;4.272;2024-01-07T02:12:59;22.73;;;13.87;;
22129;SDS011;11231;50.746;4.272;2024-01-07T02:15:26;21.97;;;13.83;;
22129;SDS011;11231;50.746;4.272;2024-01-07T02:17:51;21.43;;;13.23;;
22129;SDS011;11231;50.746;4.272;2024-01-07T02:20:18;23.03;;;13.67;;
22129;SDS011;11231;50.746;4.272;2024-01-07T02:22:47;23.30;;;14.60;;
22129;SDS011;11231;50.746;4.272;2024-01-07T02:25:15;22.53;;;13.23;;
22129;SDS011;11231;50.746;4.272;2024-01-07T02:27:42;24.43;;;14.07;;
22129;SDS011;11231;50.746;4.272;2024-01-07T02:30:07;25.07;;;13.43;;
22129;SDS011;11231;50.746;4.272;2024-01-07T02:32:38;22.17;;;14.27;;
22129;SDS011;11231;50.746;4.272;2024-01-07T02:35:05;26.47;;;15.60;;
22129;SDS011;11231;50.746;4.272;2024-01-07T02:37:31;25.43;;;15.17;;
22129;SDS011;11231;50.746;4.272;2024-01-07T02:40:00;25.50;;;16.00;;
22129;SDS011;11231;50.746;4.272;2024-01-07T02:42:26;27.07;;;16.00;;
22129;SDS011;11231;50.746;4.272;2024-01-07T02:44:52;26.43;;;16.20;;
22129;SDS011;11231;50.746;4.272;2024-01-07T02:47:18;29.57;;;16.57;;
22129;SDS011;11231;50.746;4.272;2024-01-07T02:49:44;26.63;;;15.43;;
22129;SDS011;11231;50.746;4.272;2024-01-07T02:52:11;25.23;;;15.67;;
22129;SDS011;11231;50.746;4.272;2024-01-07T02:54:36;21.80;;;11.20;;
22129;SDS011;11231;50.746;4.272;2024-01-07T02:57:02;22.07;;;13.17;;
22129;SDS011;11231;50.746;4.272;2024-01-07T02:59:28;17.17;;;9.77;;
22129;SDS011;11231;50.746;4.272;2024-01-07T03:01:54;21.33;;;12.57;;
22129;SDS011;11231;50.746;4.272;2024-01-07T03:04:22;21.10;;;12.17;;
22129;SDS011;11231;50.746;4.272;2024-01-07T03:06:48;21.63;;;12.80;;
22129;SDS011;11231;50.746;4.272;2024-01-07T03:09:14;21.17;;;12.33;;
22129;SDS011;11231;50.746;4.272;2024-01-07T03:11:40;22.13;;;11.73;;
22129;SDS011;11231;50.746;4.272;2024-01-07T03:14:07;21.30;;;11.67;;
22129;SDS011;11231;50.746;4.272;2024-01-07T03:16:33;20.57;;;11.83;;
22129;SDS011;11231;50.746;4.272;2024-01-07T03:18:59;23.10;;;12.43;;
22129;SDS011;11231;50.746;4.272;2024-01-07T03:21:25;21.00;;;12.70;;
22129;SDS011;11231;50.746;4.272;2024-01-07T03:23:51;23.47;;;13.60;;
22129;SDS011;11231;50.746;4.272;2024-01-07T03:26:20;23.50;;;13.70;;
22129;SDS011;11231;50.746;4.272;2024-01-07T03:28:47;23.53;;;13.13;;
22129;SDS011;11231;50.746;4.272;2024-01-07T03:31:13;22.57;;;13.43;;
22129;SDS011;11231;50.746;4.272;2024-01-07T03:33:41;24.47;;;14.03;;
22129;SDS011;11231;50.746;4.272;2024-01-07T03:36:11;26.77;;;15.00;;
22129;SDS011;11231;50.746;4.272;2024-01-07T03:38:38;25.37;;;14.20;;
22129;SDS011;11231;50.746;4.272;2024-01-07T03:41:07;23.40;;;13.67;;
22129;SDS011;11231;50.746;4.272;2024-01-07T03:43:33;27.43;;;14.90;;
22129;SDS011;11231;50.746;4.272;2024-01-07T03:45:59;25.63;;;15.83;;
22129;SDS011;11231;50.746;4.272;2024-01-07T03:48:26;25.50;;;14.40;;
22129;SDS011;11231;50.746;4.272;2024-01-07T03:50:52;26.70;;;15.80;;
22129;SDS011;11231;50.746;4.272;2024-01-07T03:53:17;28.07;;;16.40;;
22129;SDS011;11231;50.746;4.272;2024-01-07T03:55:43;25.80;;;15.43;;
22129;SDS011;11231;50.746;4.272;2024-01-07T03:58:09;29.57;;;16.43;;
22129;SDS011;11231;50.746;4.272;2024-01-07T04:00:36;30.63;;;17.10;;
22129;SDS011;11231;50.746;4.272;2024-01-07T04:03:02;28.13;;;17.27;;
22129;SDS011;11231;50.746;4.272;2024-01-07T04:05:28;28.47;;;16.07;;
22129;SDS011;11231;50.746;4.272;2024-01-07T04:07:56;29.83;;;17.00;;
22129;SDS011;11231;50.746;4.272;2024-01-07T04:10:21;30.77;;;18.17;;
22129;SDS011;11231;50.746;4.272;2024-01-07T04:12:47;30.37;;;17.63;;
22129;SDS011;11231;50.746;4.272;2024-01-07T04:15:13;32.60;;;17.97;;
22129;SDS011;11231;50.746;4.272;2024-01-07T04:17:40;31.50;;;18.57;;
22129;SDS011;11231;50.746;4.272;2024-01-07T04:20:06;33.03;;;18.80;;
22129;SDS011;11231;50.746;4.272;2024-01-07T04:22:33;32.83;;;19.03;;
22129;SDS011;11231;50.746;4.272;2024-01-07T04:24:58;32.83;;;18.30;;
22129;SDS011;11231;50.746;4.272;2024-01-07T04:27:25;36.97;;;20.77;;
22129;SDS011;11231;50.746;4.272;2024-01-07T04:29:50;33.40;;;19.23;;
22129;SDS011;11231;50.746;4.272;2024-01-07T04:32:17;34.47;;;19.27;;
22129;SDS011;11231;50.746;4.272;2024-01-07T04:34:45;33.07;;;19.33;;
22129;SDS011;11231;50.746;4.272;2024-01-07T04:37:26;36.33;;;20.63;;
22129;SDS011;11231;50.746;4.272;2024-01-07T04:39:52;36.80;;;20.63;;
22129;SDS011;11231;50.746;4.272;2024-01-07T04:42:18;35.60;;;20.77;;
22129;SDS011;11231;50.746;4.272;2024-01-07T04:44:44;37.03;;;21.50;;
22129;SDS011;11231;50.746;4.272;2024-01-07T04:47:26;37.27;;;20.40;;
22129;SDS011;11231;50.746;4.272;2024-01-07T04:49:56;35.97;;;20.50;;
22129;SDS011;11231;50.746;4.272;2024-01-07T04:52:25;36.73;;;19.17;;
22129;SDS011;11231;50.746;4.272;2024-01-07T04:54:53;38.70;;;21.53;;
22129;SDS011;11231;50.746;4.272;2024-01-07T04:57:20;38.67;;;21.50;;
22129;SDS011;11231;50.746;4.272;2024-01-07T04:59:47;41.17;;;24.00;;
22129;SDS011;11231;50.746;4.272;2024-01-07T05:02:15;45.43;;;23.47;;
22129;SDS011;11231;50.746;4.272;2024-01-07T05:04:41;45.63;;;24.83;;
22129;SDS011;11231;50.746;4.272;2024-01-07T05:07:07;45.33;;;24.53;;
22129;SDS011;11231;50.746;4.272;2024-01-07T05:09:33;44.27;;;23.37;;
22129;SDS011;11231;50.746;4.272;2024-01-07T05:12:00;48.97;;;24.03;;
22129;SDS011;11231;50.746;4.272;2024-01-07T05:14:26;48.53;;;24.57;;
22129;SDS011;11231;50.746;4.272;2024-01-07T05:16:53;50.57;;;25.50;;
22129;SDS011;11231;50.746;4.272;2024-01-07T05:19:20;48.47;;;25.53;;
22129;SDS011;11231;50.746;4.272;2024-01-07T05:21:53;50.97;;;26.03;;
22129;SDS011;11231;50.746;4.272;2024-01-07T05:24:18;52.40;;;26.87;;
22129;SDS011;11231;50.746;4.272;2024-01-07T05:26:45;53.63;;;27.67;;
22129;SDS011;11231;50.746;4.272;2024-01-07T05:29:15;52.30;;;26.40;;
22129;SDS011;11231;50.746;4.272;2024-01-07T05:31:45;50.67;;;26.83;;
22129;SDS011;11231;50.746;4.272;2024-01-07T05:34:13;54.17;;;26.60;;
22129;SDS011;11231;50.746;4.272;2024-01-07T05:36:43;52.03;;;26.80;;
22129;SDS011;11231;50.746;4.272;2024-01-07T05:39:10;52.00;;;26.60;;
22129;SDS011;11231;50.746;4.272;2024-01-07T05:41:38;50.43;;;25.23;;
22129;SDS011;11231;50.746;4.272;2024-01-07T05:44:06;53.50;;;27.70;;
22129;SDS011;11231;50.746;4.272;2024-01-07T05:46:33;54.40;;;27.40;;
22129;SDS011;11231;50.746;4.272;2024-01-07T05:48:59;52.97;;;27.60;;
22129;SDS011;11231;50.746;4.272;2024-01-07T05:51:27;54.30;;;28.23;;
22129;SDS011;11231;50.746;4.272;2024-01-07T05:53:57;52.47;;;27.13;;
22129;SDS011;11231;50.746;4.272;2024-01-07T05:56:28;55.83;;;29.43;;
22129;SDS011;11231;50.746;4.272;2024-01-07T05:58:53;55.73;;;27.50;;
22129;SDS011;11231;50.746;4.272;2024-01-07T06:01:20;53.27;;;28.10;;
22129;SDS011;11231;50.746;4.272;2024-01-07T06:03:50;53.23;;;26.63;;
22129;SDS011;11231;50.746;4.272;2024-01-07T06:06:18;52.27;;;25.73;;
22129;SDS011;11231;50.746;4.272;2024-01-07T06:08:43;53.90;;;27.63;;
22129;SDS011;11231;50.746;4.272;2024-01-07T06:11:10;50.27;;;27.47;;
22129;SDS011;11231;50.746;4.272;2024-01-07T06:13:37;53.83;;;28.00;;
22129;SDS011;11231;50.746;4.272;2024-01-07T06:16:06;55.07;;;27.77;;
22129;SDS011;11231;50.746;4.272;2024-01-07T06:18:32;53.93;;;26.63;;
22129;SDS011;11231;50.746;4.272;2024-01-07T06:20:58;47.00;;;25.00;;
22129;SDS011;11231;50.746;4.272;2024-01-07T06:23:24;48.80;;;25.83;;
22129;SDS011;11231;50.746;4.272;2024-01-07T06:25:49;54.70;;;27.37;;
22129;SDS011;11231;50.746;4.272;2024-01-07T06:28:15;52.60;;;26.23;;
22129;SDS011;11231;50.746;4.272;2024-01-07T06:30:41;49.20;;;24.27;;
22129;SDS011;11231;50.746;4.272;2024-01-07T06:33:07;55.47;;;25.60;;
22129;SDS011;11231;50.746;4.272;2024-01-07T06:35:34;53.20;;;26.60;;
22129;SDS011;11231;50.746;4.272;2024-01-07T06:38:01;54.83;;;27.90;;
22129;SDS011;11231;50.746;4.272;2024-01-07T06:40:27;53.97;;;25.37;;
22129;SDS011;11231;50.746;4.272;2024-01-07T06:42:53;53.50;;;27.80;;
22129;SDS011;11231;50.746;4.272;2024-01-07T06:45:23;53.63;;;27.17;;
22129;SDS011;11231;50.746;4.272;2024-01-07T06:47:54;54.67;;;28.10;;
22129;SDS011;11231;50.746;4.272;2024-01-07T06:50:20;51.43;;;26.23;;
22129;SDS011;11231;50.746;4.272;2024-01-07T06:52:47;53.87;;;25.87;;
22129;SDS011;11231;50.746;4.272;2024-01-07T06:55:13;55.00;;;26.47;;
22129;SDS011;11231;50.746;4.272;2024-01-07T06:57:38;56.20;;;27.37;;
22129;SDS011;11231;50.746;4.272;2024-01-07T07:00:05;58.30;;;28.87;;
22129;SDS011;11231;50.746;4.272;2024-01-07T07:02:32;60.27;;;28.67;;
22129;SDS011;11231;50.746;4.272;2024-01-07T07:04:58;51.83;;;24.80;;
22129;SDS011;11231;50.746;4.272;2024-01-07T07:07:24;59.70;;;29.07;;
22129;SDS011;11231;50.746;4.272;2024-01-07T07:09:50;60.20;;;28.87;;
22129;SDS011;11231;50.746;4.272;2024-01-07T07:12:17;59.37;;;29.30;;
22129;SDS011;11231;50.746;4.272;2024-01-07T07:14:43;58.80;;;28.57;;
22129;SDS011;11231;50.746;4.272;2024-01-07T07:17:09;56.40;;;27.20;;
22129;SDS011;11231;50.746;4.272;2024-01-07T07:19:35;59.47;;;27.77;;
22129;SDS011;11231;50.746;4.272;2024-01-07T07:22:00;58.53;;;29.83;;
22129;SDS011;11231;50.746;4.272;2024-01-07T07:24:26;61.80;;;26.30;;
22129;SDS011;11231;50.746;4.272;2024-01-07T07:26:53;56.63;;;26.80;;
22129;SDS011;11231;50.746;4.272;2024-01-07T07:29:19;60.67;;;28.77;;
22129;SDS011;11231;50.746;4.272;2024-01-07T07:31:45;57.70;;;27.60;;
22129;SDS011;11231;50.746;4.272;2024-01-07T07:34:11;61.40;;;29.30;;
22129;SDS011;11231;50.746;4.272;2024-01-07T07:36:37;57.87;;;28.50;;
22129;SDS011;11231;50.746;4.272;2024-01-07T07:39:05;60.80;;;27.60;;
22129;SDS011;11231;50.746;4.272;2024-01-07T07:41:33;62.43;;;29.13;;
22129;SDS011;11231;50.746;4.272;2024-01-07T07:44:03;60.60;;;27.80;;
22129;SDS011;11231;50.746;4.272;2024-01-07T07:46:32;63.03;;;25.90;;
22129;SDS011;11231;50.746;4.272;2024-01-07T07:48:58;57.47;;;26.67;;
22129;SDS011;11231;50.746;4.272;2024-01-07T07:51:26;56.63;;;25.50;;
22129;SDS011;11231;50.746;4.272;2024-01-07T07:53:55;57.80;;;26.77;;
22129;SDS011;11231;50.746;4.272;2024-01-07T07:56:21;62.43;;;26.73;;
22129;SDS011;11231;50.746;4.272;2024-01-07T07:59:02;56.90;;;26.27;;
22129;SDS011;11231;50.746;4.272;2024-01-07T08:01:29;56.93;;;25.87;;
22129;SDS011;11231;50.746;4.272;2024-01-07T08:03:54;60.77;;;27.13;;
22129;SDS011;11231;50.746;4.272;2024-01-07T08:06:20;63.83;;;28.33;;
22129;SDS011;11231;50.746;4.272;2024-01-07T08:08:47;60.37;;;26.50;;
22129;SDS011;11231;50.746;4.272;2024-01-07T08:11:13;63.53;;;27.87;;
22129;SDS011;11231;50.746;4.272;2024-01-07T08:13:38;58.93;;;26.60;;
22129;SDS011;11231;50.746;4.272;2024-01-07T08:16:04;54.43;;;23.70;;
22129;SDS011;11231;50.746;4.272;2024-01-07T08:18:31;64.87;;;27.20;;
22129;SDS011;11231;50.746;4.272;2024-01-07T08:20:57;65.63;;;28.97;;
22129;SDS011;11231;50.746;4.272;2024-01-07T08:23:26;67.93;;;28.83;;
22129;SDS011;11231;50.746;4.272;2024-01-07T08:25:52;66.80;;;28.67;;
22129;SDS011;11231;50.746;4.272;2024-01-07T08:28:18;64.30;;;27.73;;
22129;SDS011;11231;50.746;4.272;2024-01-07T08:30:46;66.63;;;28.20;;
22129;SDS011;11231;50.746;4.272;2024-01-07T08:33:14;60.37;;;28.97;;
22129;SDS011;11231;50.746;4.272;2024-01-07T08:35:42;58.43;;;23.53;;
22129;SDS011;11231;50.746;4.272;2024-01-07T08:38:08;58.87;;;26.80;;
22129;SDS011;11231;50.746;4.272;2024-01-07T08:40:37;62.23;;;27.93;;
22129;SDS011;11231;50.746;4.272;2024-01-07T08:43:03;60.87;;;26.83;;
22129;SDS011;11231;50.746;4.272;2024-01-07T08:45:28;67.77;;;29.83;;
22129;SDS011;11231;50.746;4.272;2024-01-07T08:47:54;69.07;;;31.00;;
22129;SDS011;11231;50.746;4.272;2024-01-07T08:50:20;72.67;;;30.17;;
22129;SDS011;11231;50.746;4.272;2024-01-07T08:52:46;75.17;;;34.03;;
22129;SDS011;11231;50.746;4.272;2024-01-07T08:55:12;68.60;;;30.00;;
22129;SDS011;11231;50.746;4.272;2024-01-07T08:57:38;65.20;;;29.27;;
22129;SDS011;11231;50.746;4.272;2024-01-07T09:00:07;61.90;;;29.83;;
22129;SDS011;11231;50.746;4.272;2024-01-07T09:02:33;56.83;;;25.67;;
22129;SDS011;11231;50.746;4.272;2024-01-07T09:04:59;57.37;;;25.57;;
22129;SDS011;11231;50.746;4.272;2024-01-07T09:07:24;52.87;;;24.53;;
22129;SDS011;11231;50.746;4.272;2024-01-07T09:09:50;49.47;;;23.00;;
22129;SDS011;11231;50.746;4.272;2024-01-07T09:12:16;49.70;;;23.73;;
22129;SDS011;11231;50.746;4.272;2024-01-07T09:14:42;47.03;;;21.53;;
22129;SDS011;11231;50.746;4.272;2024-01-07T09:17:08;45.10;;;22.00;;
22129;SDS011;11231;50.746;4.272;2024-01-07T09:19:34;46.90;;;22.77;;
22129;SDS011;11231;50.746;4.272;2024-01-07T09:22:02;43.27;;;19.90;;
22129;SDS011;11231;50.746;4.272;2024-01-07T09:24:28;42.40;;;22.07;;
22129;SDS011;11231;50.746;4.272;2024-01-07T09:26:55;41.60;;;20.53;;
22129;SDS011;11231;50.746;4.272;2024-01-07T09:29:22;41.97;;;21.10;;
22129;SDS011;11231;50.746;4.272;2024-01-07T09:31:48;43.33;;;20.07;;
22129;SDS011;11231;50.746;4.272;2024-01-07T09:34:14;39.13;;;20.00;;
22129;SDS011;11231;50.746;4.272;2024-01-07T09:36:40;42.63;;;21.40;;
22129;SDS011;11231;50.746;4.272;2024-01-07T09:39:10;41.90;;;21.93;;
22129;SDS011;11231;50.746;4.272;2024-01-07T09:41:36;51.77;;;23.87;;
22129;SDS011;11231;50.746;4.272;2024-01-07T09:44:03;45.63;;;23.73;;
22129;SDS011;11231;50.746;4.272;2024-01-07T09:46:30;48.23;;;24.03;;
22129;SDS011;11231;50.746;4.272;2024-01-07T09:48:57;47.80;;;24.37;;
22129;SDS011;11231;50.746;4.272;2024-01-07T09:51:23;46.43;;;23.80;;
22129;SDS011;11231;50.746;4.272;2024-01-07T09:53:50;49.47;;;24.97;;
22129;SDS011;11231;50.746;4.272;2024-01-07T09:56:25;48.53;;;23.77;;
22129;SDS011;11231;50.746;4.272;2024-01-07T09:58:54;45.10;;;23.70;;
22129;SDS011;11231;50.746;4.272;2024-01-07T10:01:20;45.53;;;23.63;;
22129;SDS011;11231;50.746;4.272;2024-01-07T10:03:46;42.03;;;23.40;;
22129;SDS011;11231;50.746;4.272;2024-01-07T10:06:12;39.20;;;19.87;;
22129;SDS011;11231;50.746;4.272;2024-01-07T10:08:38;38.63;;;20.43;;
22129;SDS011;11231;50.746;4.272;2024-01-07T10:11:04;42.13;;;22.57;;
22129;SDS011;11231;50.746;4.272;2024-01-07T10:13:30;44.07;;;20.63;;
22129;SDS011;11231;50.746;4.272;2024-01-07T10:15:57;42.83;;;22.43;;
22129;SDS011;11231;50.746;4.272;2024-01-07T10:18:23;45.37;;;22.67;;
22129;SDS011;11231;50.746;4.272;2024-01-07T10:20:50;41.37;;;23.70;;
22129;SDS011;11231;50.746;4.272;2024-01-07T10:23:21;47.20;;;24.60;;
22129;SDS011;11231;50.746;4.272;2024-01-07T10:25:47;45.70;;;24.20;;
22129;SDS011;11231;50.746;4.272;2024-01-07T10:28:13;41.83;;;23.27;;
22129;SDS011;11231;50.746;4.272;2024-01-07T10:30:46;46.30;;;25.47;;
22129;SDS011;11231;50.746;4.272;2024-01-07T10:33:14;40.53;;;21.07;;
22129;SDS011;11231;50.746;4.272;2024-01-07T10:35:43;41.07;;;23.20;;
22129;SDS011;11231;50.746;4.272;2024-01-07T10:38:16;43.47;;;22.87;;
22129;SDS011;11231;50.746;4.272;2024-01-07T10:40:42;43.83;;;23.13;;
22129;SDS011;11231;50.746;4.272;2024-01-07T10:43:10;42.87;;;24.67;;
22129;SDS011;11231;50.746;4.272;2024-01-07T10:45:38;46.33;;;25.53;;
22129;SDS011;11231;50.746;4.272;2024-01-07T10:48:04;46.73;;;25.20;;
22129;SDS011;11231;50.746;4.272;2024-01-07T10:50:33;47.87;;;25.27;;
22129;SDS011;11231;50.746;4.272;2024-01-07T10:53:02;55.43;;;28.47;;
22129;SDS011;11231;50.746;4.272;2024-01-07T10:55:33;50.63;;;27.47;;
22129;SDS011;11231;50.746;4.272;2024-01-07T10:58:03;48.67;;;26.63;;
22129;SDS011;11231;50.746;4.272;2024-01-07T11:00:29;47.77;;;26.60;;
22129;SDS011;11231;50.746;4.272;2024-01-07T11:03:04;47.03;;;25.80;;
22129;SDS011;11231;50.746;4.272;2024-01-07T11:05:44;42.40;;;22.33;;
22129;SDS011;11231;50.746;4.272;2024-01-07T11:08:15;44.80;;;24.20;;
22129;SDS011;11231;50.746;4.272;2024-01-07T11:16:03;44.83;;;24.73;;
22129;SDS011;11231;50.746;4.272;2024-01-07T11:18:46;47.00;;;25.13;;
22129;SDS011;11231;50.746;4.272;2024-01-07T11:21:25;45.77;;;24.60;;
22129;SDS011;11231;50.746;4.272;2024-01-07T11:23:51;61.23;;;32.20;;
22129;SDS011;11231;50.746;4.272;2024-01-07T11:26:18;57.47;;;30.73;;
22129;SDS011;11231;50.746;4.272;2024-01-07T11:28:48;47.13;;;26.80;;
22129;SDS011;11231;50.746;4.272;2024-01-07T11:31:28;50.03;;;26.97;;
22129;SDS011;11231;50.746;4.272;2024-01-07T11:34:08;47.80;;;26.00;;
22129;SDS011;11231;50.746;4.272;2024-01-07T11:36:35;48.43;;;26.17;;
22129;SDS011;11231;50.746;4.272;2024-01-07T11:39:02;46.27;;;25.53;;
22129;SDS011;11231;50.746;4.272;2024-01-07T11:41:29;42.97;;;21.73;;
22129;SDS011;11231;50.746;4.272;2024-01-07T11:43:59;51.83;;;28.80;;
22129;SDS011;11231;50.746;4.272;2024-01-07T11:46:28;43.60;;;25.33;;
22129;SDS011;11231;50.746;4.272;2024-01-07T11:48:56;45.87;;;24.03;;
22129;SDS011;11231;50.746;4.272;2024-01-07T11:51:30;41.33;;;24.03;;
22129;SDS011;11231;50.746;4.272;2024-01-07T11:53:57;38.83;;;21.03;;
22129;SDS011;11231;50.746;4.272;2024-01-07T11:56:24;45.03;;;23.20;;
22129;SDS011;11231;50.746;4.272;2024-01-07T11:58:51;36.33;;;20.20;;
22129;SDS011;11231;50.746;4.272;2024-01-07T12:01:18;39.13;;;19.43;;
22129;SDS011;11231;50.746;4.272;2024-01-07T12:03:45;33.03;;;18.30;;
22129;SDS011;11231;50.746;4.272;2024-01-07T12:06:12;36.07;;;19.53;;
22129;SDS011;11231;50.746;4.272;2024-01-07T12:08:42;35.30;;;18.77;;
22129;SDS011;11231;50.746;4.272;2024-01-07T12:11:11;37.90;;;19.70;;
22129;SDS011;11231;50.746;4.272;2024-01-07T12:13:38;38.60;;;20.53;;
22129;SDS011;11231;50.746;4.272;2024-01-07T12:16:05;37.57;;;18.87;;
22129;SDS011;11231;50.746;4.272;2024-01-07T12:18:31;38.10;;;21.43;;
22129;SDS011;11231;50.746;4.272;2024-01-07T12:20:57;35.83;;;19.37;;
22129;SDS011;11231;50.746;4.272;2024-01-07T12:23:27;34.57;;;20.37;;
22129;SDS011;11231;50.746;4.272;2024-01-07T12:25:53;38.63;;;19.97;;
22129;SDS011;11231;50.746;4.272;2024-01-07T12:28:22;36.50;;;20.00;;
22129;SDS011;11231;50.746;4.272;2024-01-07T12:30:48;36.53;;;20.57;;
22129;SDS011;11231;50.746;4.272;2024-01-07T12:33:17;36.23;;;20.13;;
22129;SDS011;11231;50.746;4.272;2024-01-07T12:35:47;36.67;;;20.93;;
22129;SDS011;11231;50.746;4.272;2024-01-07T12:38:13;36.80;;;18.67;;
22129;SDS011;11231;50.746;4.272;2024-01-07T12:40:39;35.30;;;19.23;;
22129;SDS011;11231;50.746;4.272;2024-01-07T12:43:05;35.33;;;18.57;;
22129;SDS011;11231;50.746;4.272;2024-01-07T12:45:32;38.27;;;19.37;;
22129;SDS011;11231;50.746;4.272;2024-01-07T12:47:58;32.97;;;17.80;;
22129;SDS011;11231;50.746;4.272;2024-01-07T12:50:27;37.87;;;17.07;;
22129;SDS011;11231;50.746;4.272;2024-01-07T12:52:55;32.97;;;16.57;;
22129;SDS011;11231;50.746;4.272;2024-01-07T12:55:22;34.73;;;18.27;;
22129;SDS011;11231;50.746;4.272;2024-01-07T12:57:47;32.03;;;17.03;;
22129;SDS011;11231;50.746;4.272;2024-01-07T13:00:14;35.50;;;19.20;;
22129;SDS011;11231;50.746;4.272;2024-01-07T13:02:40;35.77;;;18.80;;
22129;SDS011;11231;50.746;4.272;2024-01-07T13:05:06;36.27;;;18.90;;
22129;SDS011;11231;50.746;4.272;2024-01-07T13:07:32;33.13;;;17.63;;
22129;SDS011;11231;50.746;4.272;2024-01-07T13:09:58;33.27;;;19.57;;
22129;SDS011;11231;50.746;4.272;2024-01-07T13:12:24;33.23;;;18.10;;
22129;SDS011;11231;50.746;4.272;2024-01-07T13:14:51;33.03;;;17.93;;
22129;SDS011;11231;50.746;4.272;2024-01-07T13:17:18;33.93;;;19.40;;
22129;SDS011;11231;50.746;4.272;2024-01-07T13:19:44;32.90;;;19.83;;
22129;SDS011;11231;50.746;4.272;2024-01-07T13:22:09;31.17;;;17.03;;
22129;SDS011;11231;50.746;4.272;2024-01-07T13:24:36;33.73;;;17.83;;
22129;SDS011;11231;50.746;4.272;2024-01-07T13:27:02;30.67;;;15.63;;
22129;SDS011;11231;50.746;4.272;2024-01-07T13:29:29;33.83;;;16.63;;
22129;SDS011;11231;50.746;4.272;2024-01-07T13:31:55;31.93;;;16.93;;
22129;SDS011;11231;50.746;4.272;2024-01-07T13:34:20;30.87;;;17.20;;
22129;SDS011;11231;50.746;4.272;2024-01-07T13:36:46;31.43;;;18.10;;
22129;SDS011;11231;50.746;4.272;2024-01-07T13:39:12;30.50;;;17.77;;
22129;SDS011;11231;50.746;4.272;2024-01-07T13:41:41;33.77;;;18.10;;
22129;SDS011;11231;50.746;4.272;2024-01-07T13:44:06;32.93;;;17.93;;
22129;SDS011;11231;50.746;4.272;2024-01-07T13:46:33;27.93;;;15.37;;
22129;SDS011;11231;50.746;4.272;2024-01-07T13:48:59;31.53;;;17.80;;
22129;SDS011;11231;50.746;4.272;2024-01-07T13:51:25;30.83;;;17.73;;
22129;SDS011;11231;50.746;4.272;2024-01-07T13:53:51;30.80;;;18.10;;
22129;SDS011;11231;50.746;4.272;2024-01-07T13:56:17;35.37;;;18.77;;
22129;SDS011;11231;50.746;4.272;2024-01-07T13:58:43;32.63;;;18.10;;
22129;SDS011;11231;50.746;4.272;2024-01-07T14:01:12;25.43;;;15.27;;
22129;SDS011;11231;50.746;4.272;2024-01-07T14:03:38;32.53;;;18.37;;
22129;SDS011;11231;50.746;4.272;2024-01-07T14:06:04;30.63;;;17.67;;
22129;SDS011;11231;50.746;4.272;2024-01-07T14:08:30;28.73;;;16.73;;
22129;SDS011;11231;50.746;4.272;2024-01-07T14:10:56;28.37;;;16.50;;
22129;SDS011;11231;50.746;4.272;2024-01-07T14:13:23;29.13;;;17.77;;
22129;SDS011;11231;50.746;4.272;2024-01-07T14:15:48;28.80;;;15.93;;
22129;SDS011;11231;50.746;4.272;2024-01-07T14:18:14;28.77;;;17.17;;
22129;SDS011;11231;50.746;4.272;2024-01-07T14:20:42;28.90;;;16.57;;
22129;SDS011;11231;50.746;4.272;2024-01-07T14:23:08;28.43;;;16.77;;
22129;SDS011;11231;50.746;4.272;2024-01-07T14:25:35;27.07;;;16.43;;